sensor_id;sensor_type;location;lat;lon;timestamp;P1;durP1;ratioP1;P2;durP2;ratioP2
80249;SDS011;69561;37.974;23.708;2023-08-08T00:01:02;2.45;;;1.13;;
80249;SDS011;69561;37.974;23.708;2023-08-08T00:05:55;2.97;;;1.00;;
80249;SDS011;69561;37.974;23.708;2023-08-08T00:08:21;2.65;;;1.30;;
80249;SDS011;69561;37.974;23.708;2023-08-08T00:10:46;3.58;;;1.10;;
80249;SDS011;69561;37.974;23.708;2023-08-08T00:13:12;3.22;;;1.30;;
80249;SDS011;69561;37.974;23.708;2023-08-08T00:15:38;2.55;;;1.20;;
80249;SDS011;69561;37.974;23.708;2023-08-08T00:18:04;4.30;;;1.20;;
80249;SDS011;69561;37.974;23.708;2023-08-08T00:20:30;3.78;;;1.10;;
80249;SDS011;69561;37.974;23.708;2023-08-08T00:22:55;3.75;;;1.45;;
80249;SDS011;69561;37.974;23.708;2023-08-08T00:25:21;3.70;;;1.48;;
80249;SDS011;69561;37.974;23.708;2023-08-08T00:27:47;3.55;;;1.35;;
80249;SDS011;69561;37.974;23.708;2023-08-08T00:30:13;6.82;;;1.40;;
80249;SDS011;69561;37.974;23.708;2023-08-08T00:32:39;4.65;;;1.75;;
80249;SDS011;69561;37.974;23.708;2023-08-08T00:35:05;6.10;;;1.70;;
80249;SDS011;69561;37.974;23.708;2023-08-08T00:37:30;5.57;;;1.55;;
80249;SDS011;69561;37.974;23.708;2023-08-08T00:39:56;5.40;;;1.85;;
80249;SDS011;69561;37.974;23.708;2023-08-08T00:42:22;7.18;;;1.90;;
80249;SDS011;69561;37.974;23.708;2023-08-08T00:44:48;6.60;;;2.13;;
80249;SDS011;69561;37.974;23.708;2023-08-08T00:47:14;9.98;;;2.30;;
80249;SDS011;69561;37.974;23.708;2023-08-08T00:49:39;9.27;;;2.03;;
80249;SDS011;69561;37.974;23.708;2023-08-08T00:52:06;7.22;;;2.10;;
80249;SDS011;69561;37.974;23.708;2023-08-08T00:54:32;9.88;;;1.88;;
80249;SDS011;69561;37.974;23.708;2023-08-08T00:56:58;4.93;;;1.83;;
80249;SDS011;69561;37.974;23.708;2023-08-08T00:59:24;5.75;;;1.75;;
80249;SDS011;69561;37.974;23.708;2023-08-08T01:01:49;6.18;;;1.80;;
80249;SDS011;69561;37.974;23.708;2023-08-08T01:04:16;6.93;;;1.70;;
80249;SDS011;69561;37.974;23.708;2023-08-08T01:09:45;6.85;;;1.77;;
80249;SDS011;69561;37.974;23.708;2023-08-08T01:14:58;6.00;;;1.80;;
80249;SDS011;69561;37.974;23.708;2023-08-08T01:17:24;5.13;;;1.73;;
80249;SDS011;69561;37.974;23.708;2023-08-08T01:19:50;6.50;;;1.95;;
80249;SDS011;69561;37.974;23.708;2023-08-08T01:22:24;9.23;;;2.00;;
80249;SDS011;69561;37.974;23.708;2023-08-08T01:24:54;5.43;;;1.60;;
80249;SDS011;69561;37.974;23.708;2023-08-08T01:27:21;6.32;;;2.03;;
80249;SDS011;69561;37.974;23.708;2023-08-08T01:29:47;5.40;;;1.90;;
80249;SDS011;69561;37.974;23.708;2023-08-08T01:32:13;5.00;;;2.00;;
80249;SDS011;69561;37.974;23.708;2023-08-08T01:34:39;5.95;;;2.03;;
80249;SDS011;69561;37.974;23.708;2023-08-08T01:37:16;7.07;;;1.90;;
80249;SDS011;69561;37.974;23.708;2023-08-08T01:39:46;4.70;;;1.80;;
80249;SDS011;69561;37.974;23.708;2023-08-08T01:42:14;5.43;;;2.03;;
80249;SDS011;69561;37.974;23.708;2023-08-08T01:44:42;8.65;;;2.17;;
80249;SDS011;69561;37.974;23.708;2023-08-08T01:47:08;5.68;;;1.95;;
80249;SDS011;69561;37.974;23.708;2023-08-08T01:49:34;6.32;;;1.90;;
80249;SDS011;69561;37.974;23.708;2023-08-08T01:51:59;8.90;;;2.00;;
80249;SDS011;69561;37.974;23.708;2023-08-08T01:54:25;8.95;;;2.13;;
80249;SDS011;69561;37.974;23.708;2023-08-08T01:56:51;7.60;;;1.90;;
80249;SDS011;69561;37.974;23.708;2023-08-08T01:59:17;9.93;;;2.10;;
80249;SDS011;69561;37.974;23.708;2023-08-08T02:01:42;7.38;;;2.22;;
80249;SDS011;69561;37.974;23.708;2023-08-08T02:04:08;5.75;;;2.03;;
80249;SDS011;69561;37.974;23.708;2023-08-08T02:06:34;7.97;;;2.20;;
80249;SDS011;69561;37.974;23.708;2023-08-08T02:08:59;7.90;;;2.00;;
80249;SDS011;69561;37.974;23.708;2023-08-08T02:11:25;5.03;;;1.90;;
80249;SDS011;69561;37.974;23.708;2023-08-08T02:13:51;6.43;;;1.80;;
80249;SDS011;69561;37.974;23.708;2023-08-08T02:16:16;4.93;;;1.58;;
80249;SDS011;69561;37.974;23.708;2023-08-08T02:18:42;6.45;;;1.98;;
80249;SDS011;69561;37.974;23.708;2023-08-08T02:21:08;5.78;;;2.00;;
80249;SDS011;69561;37.974;23.708;2023-08-08T02:23:34;4.22;;;1.67;;
80249;SDS011;69561;37.974;23.708;2023-08-08T02:25:59;6.57;;;1.92;;
80249;SDS011;69561;37.974;23.708;2023-08-08T02:28:25;3.65;;;1.70;;
80249;SDS011;69561;37.974;23.708;2023-08-08T02:30:51;5.47;;;1.77;;
80249;SDS011;69561;37.974;23.708;2023-08-08T02:33:18;6.40;;;1.85;;
80249;SDS011;69561;37.974;23.708;2023-08-08T02:35:44;5.82;;;2.10;;
80249;SDS011;69561;37.974;23.708;2023-08-08T02:38:10;7.53;;;1.80;;
80249;SDS011;69561;37.974;23.708;2023-08-08T02:40:35;5.22;;;1.75;;
80249;SDS011;69561;37.974;23.708;2023-08-08T02:43:01;6.05;;;2.17;;
80249;SDS011;69561;37.974;23.708;2023-08-08T02:45:27;6.72;;;1.80;;
80249;SDS011;69561;37.974;23.708;2023-08-08T02:47:52;5.03;;;2.00;;
80249;SDS011;69561;37.974;23.708;2023-08-08T02:50:18;6.68;;;2.00;;
80249;SDS011;69561;37.974;23.708;2023-08-08T02:52:44;4.07;;;1.70;;
80249;SDS011;69561;37.974;23.708;2023-08-08T02:55:10;4.03;;;1.60;;
80249;SDS011;69561;37.974;23.708;2023-08-08T02:57:36;3.00;;;1.45;;
80249;SDS011;69561;37.974;23.708;2023-08-08T03:00:02;4.72;;;1.70;;
80249;SDS011;69561;37.974;23.708;2023-08-08T03:02:29;4.38;;;1.60;;
80249;SDS011;69561;37.974;23.708;2023-08-08T03:04:55;5.28;;;1.60;;
80249;SDS011;69561;37.974;23.708;2023-08-08T03:07:20;3.33;;;1.40;;
80249;SDS011;69561;37.974;23.708;2023-08-08T03:09:46;4.30;;;1.67;;
80249;SDS011;69561;37.974;23.708;2023-08-08T03:12:12;4.40;;;1.60;;
80249;SDS011;69561;37.974;23.708;2023-08-08T03:14:38;6.38;;;1.80;;
80249;SDS011;69561;37.974;23.708;2023-08-08T03:17:04;5.03;;;1.83;;
80249;SDS011;69561;37.974;23.708;2023-08-08T03:19:29;3.38;;;1.80;;
80249;SDS011;69561;37.974;23.708;2023-08-08T03:21:55;4.10;;;1.48;;
80249;SDS011;69561;37.974;23.708;2023-08-08T03:24:21;4.28;;;1.42;;
80249;SDS011;69561;37.974;23.708;2023-08-08T03:26:46;7.75;;;1.85;;
80249;SDS011;69561;37.974;23.708;2023-08-08T03:29:12;2.53;;;1.42;;
80249;SDS011;69561;37.974;23.708;2023-08-08T03:31:38;2.45;;;1.50;;
80249;SDS011;69561;37.974;23.708;2023-08-08T03:34:04;4.53;;;1.83;;
80249;SDS011;69561;37.974;23.708;2023-08-08T03:36:30;2.88;;;1.55;;
80249;SDS011;69561;37.974;23.708;2023-08-08T03:38:55;3.78;;;1.77;;
80249;SDS011;69561;37.974;23.708;2023-08-08T03:41:21;5.72;;;1.80;;
80249;SDS011;69561;37.974;23.708;2023-08-08T03:43:47;6.57;;;1.80;;
80249;SDS011;69561;37.974;23.708;2023-08-08T03:46:12;8.38;;;1.63;;
80249;SDS011;69561;37.974;23.708;2023-08-08T03:48:38;6.53;;;1.77;;
80249;SDS011;69561;37.974;23.708;2023-08-08T03:51:04;5.40;;;1.70;;
80249;SDS011;69561;37.974;23.708;2023-08-08T03:53:30;5.78;;;1.80;;
80249;SDS011;69561;37.974;23.708;2023-08-08T03:55:56;4.28;;;1.77;;
80249;SDS011;69561;37.974;23.708;2023-08-08T03:58:22;4.07;;;1.65;;
80249;SDS011;69561;37.974;23.708;2023-08-08T04:00:47;6.10;;;1.83;;
80249;SDS011;69561;37.974;23.708;2023-08-08T04:03:13;9.30;;;2.05;;
80249;SDS011;69561;37.974;23.708;2023-08-08T04:05:40;4.93;;;1.77;;
80249;SDS011;69561;37.974;23.708;2023-08-08T04:08:06;8.80;;;1.80;;
80249;SDS011;69561;37.974;23.708;2023-08-08T04:10:32;4.72;;;1.48;;
80249;SDS011;69561;37.974;23.708;2023-08-08T04:12:58;8.05;;;1.60;;
80249;SDS011;69561;37.974;23.708;2023-08-08T04:15:23;3.13;;;1.30;;
80249;SDS011;69561;37.974;23.708;2023-08-08T04:17:49;2.85;;;1.17;;
80249;SDS011;69561;37.974;23.708;2023-08-08T04:20:15;4.85;;;1.38;;
80249;SDS011;69561;37.974;23.708;2023-08-08T04:22:40;2.15;;;1.00;;
80249;SDS011;69561;37.974;23.708;2023-08-08T04:25:07;1.67;;;0.90;;
80249;SDS011;69561;37.974;23.708;2023-08-08T04:27:33;6.32;;;1.10;;
80249;SDS011;69561;37.974;23.708;2023-08-08T04:29:58;3.40;;;0.90;;
80249;SDS011;69561;37.974;23.708;2023-08-08T04:32:24;2.25;;;0.77;;
80249;SDS011;69561;37.974;23.708;2023-08-08T04:34:50;3.10;;;0.80;;
80249;SDS011;69561;37.974;23.708;2023-08-08T04:37:16;1.50;;;0.88;;
80249;SDS011;69561;37.974;23.708;2023-08-08T04:39:41;3.03;;;1.00;;
80249;SDS011;69561;37.974;23.708;2023-08-08T04:42:07;4.68;;;1.00;;
80249;SDS011;69561;37.974;23.708;2023-08-08T04:44:33;3.97;;;0.80;;
80249;SDS011;69561;37.974;23.708;2023-08-08T04:46:58;2.80;;;0.98;;
80249;SDS011;69561;37.974;23.708;2023-08-08T04:49:24;2.05;;;0.85;;
80249;SDS011;69561;37.974;23.708;2023-08-08T04:51:49;2.63;;;0.70;;
80249;SDS011;69561;37.974;23.708;2023-08-08T04:54:15;2.42;;;1.00;;
80249;SDS011;69561;37.974;23.708;2023-08-08T04:56:41;1.65;;;0.82;;
80249;SDS011;69561;37.974;23.708;2023-08-08T04:59:06;1.48;;;0.80;;
80249;SDS011;69561;37.974;23.708;2023-08-08T05:01:32;0.93;;;0.60;;
80249;SDS011;69561;37.974;23.708;2023-08-08T05:03:58;0.80;;;0.52;;
80249;SDS011;69561;37.974;23.708;2023-08-08T05:06:23;2.55;;;0.63;;
80249;SDS011;69561;37.974;23.708;2023-08-08T05:08:50;1.52;;;0.60;;
80249;SDS011;69561;37.974;23.708;2023-08-08T05:11:16;1.15;;;0.70;;
80249;SDS011;69561;37.974;23.708;2023-08-08T05:13:42;5.63;;;0.80;;
80249;SDS011;69561;37.974;23.708;2023-08-08T05:16:08;3.17;;;0.90;;
80249;SDS011;69561;37.974;23.708;2023-08-08T05:21:55;0.73;;;0.50;;
80249;SDS011;69561;37.974;23.708;2023-08-08T05:24:21;6.22;;;0.98;;
80249;SDS011;69561;37.974;23.708;2023-08-08T05:26:46;2.50;;;0.80;;
80249;SDS011;69561;37.974;23.708;2023-08-08T05:29:12;2.17;;;0.93;;
80249;SDS011;69561;37.974;23.708;2023-08-08T05:31:38;2.28;;;0.80;;
80249;SDS011;69561;37.974;23.708;2023-08-08T05:34:03;2.70;;;0.93;;
80249;SDS011;69561;37.974;23.708;2023-08-08T05:36:29;3.72;;;0.70;;
80249;SDS011;69561;37.974;23.708;2023-08-08T05:38:55;1.88;;;0.90;;
80249;SDS011;69561;37.974;23.708;2023-08-08T05:41:20;2.58;;;0.70;;
80249;SDS011;69561;37.974;23.708;2023-08-08T05:43:46;3.28;;;0.63;;
80249;SDS011;69561;37.974;23.708;2023-08-08T05:46:12;5.00;;;0.90;;
80249;SDS011;69561;37.974;23.708;2023-08-08T05:48:37;5.30;;;0.90;;
80249;SDS011;69561;37.974;23.708;2023-08-08T05:51:03;2.30;;;0.75;;
80249;SDS011;69561;37.974;23.708;2023-08-08T05:53:30;1.33;;;0.70;;
80249;SDS011;69561;37.974;23.708;2023-08-08T05:55:57;3.50;;;0.70;;
80249;SDS011;69561;37.974;23.708;2023-08-08T05:58:23;1.90;;;0.70;;
80249;SDS011;69561;37.974;23.708;2023-08-08T06:00:49;1.88;;;1.00;;
80249;SDS011;69561;37.974;23.708;2023-08-08T06:03:15;2.60;;;0.80;;
80249;SDS011;69561;37.974;23.708;2023-08-08T06:05:41;0.90;;;0.70;;
80249;SDS011;69561;37.974;23.708;2023-08-08T06:08:06;1.13;;;0.80;;
80249;SDS011;69561;37.974;23.708;2023-08-08T06:10:36;2.20;;;0.95;;
80249;SDS011;69561;37.974;23.708;2023-08-08T06:13:02;1.77;;;0.85;;
80249;SDS011;69561;37.974;23.708;2023-08-08T06:15:28;2.10;;;0.98;;
80249;SDS011;69561;37.974;23.708;2023-08-08T06:17:53;5.07;;;1.05;;
80249;SDS011;69561;37.974;23.708;2023-08-08T06:20:19;6.25;;;1.00;;
80249;SDS011;69561;37.974;23.708;2023-08-08T06:22:45;1.77;;;0.80;;
80249;SDS011;69561;37.974;23.708;2023-08-08T06:25:11;1.60;;;0.82;;
80249;SDS011;69561;37.974;23.708;2023-08-08T06:27:37;3.72;;;0.90;;
80249;SDS011;69561;37.974;23.708;2023-08-08T06:30:02;5.50;;;1.40;;
80249;SDS011;69561;37.974;23.708;2023-08-08T06:32:28;2.03;;;0.80;;
80249;SDS011;69561;37.974;23.708;2023-08-08T06:34:54;3.92;;;0.90;;
80249;SDS011;69561;37.974;23.708;2023-08-08T06:37:20;4.28;;;0.98;;
80249;SDS011;69561;37.974;23.708;2023-08-08T06:39:46;2.50;;;0.93;;
80249;SDS011;69561;37.974;23.708;2023-08-08T06:42:11;8.27;;;1.23;;
80249;SDS011;69561;37.974;23.708;2023-08-08T06:44:43;5.70;;;0.95;;
80249;SDS011;69561;37.974;23.708;2023-08-08T06:47:10;3.83;;;0.90;;
80249;SDS011;69561;37.974;23.708;2023-08-08T06:49:36;1.85;;;0.93;;
80249;SDS011;69561;37.974;23.708;2023-08-08T06:52:03;2.33;;;0.80;;
80249;SDS011;69561;37.974;23.708;2023-08-08T06:54:30;8.23;;;1.35;;
80249;SDS011;69561;37.974;23.708;2023-08-08T06:56:56;8.55;;;1.30;;
80249;SDS011;69561;37.974;23.708;2023-08-08T06:59:22;6.22;;;1.20;;
80249;SDS011;69561;37.974;23.708;2023-08-08T07:01:49;2.80;;;0.80;;
80249;SDS011;69561;37.974;23.708;2023-08-08T07:04:16;11.43;;;1.27;;
80249;SDS011;69561;37.974;23.708;2023-08-08T07:06:43;2.75;;;0.90;;
80249;SDS011;69561;37.974;23.708;2023-08-08T07:09:09;5.15;;;1.00;;
80249;SDS011;69561;37.974;23.708;2023-08-08T07:11:36;5.10;;;0.90;;
80249;SDS011;69561;37.974;23.708;2023-08-08T07:14:02;5.18;;;1.05;;
80249;SDS011;69561;37.974;23.708;2023-08-08T07:16:28;1.40;;;0.90;;
80249;SDS011;69561;37.974;23.708;2023-08-08T07:18:54;1.92;;;0.80;;
80249;SDS011;69561;37.974;23.708;2023-08-08T07:21:19;5.50;;;1.00;;
80249;SDS011;69561;37.974;23.708;2023-08-08T07:23:45;3.40;;;0.75;;
80249;SDS011;69561;37.974;23.708;2023-08-08T07:26:11;2.35;;;0.70;;
80249;SDS011;69561;37.974;23.708;2023-08-08T07:28:37;1.48;;;0.80;;
80249;SDS011;69561;37.974;23.708;2023-08-08T07:31:02;2.13;;;0.63;;
80249;SDS011;69561;37.974;23.708;2023-08-08T07:33:28;1.67;;;1.20;;
80249;SDS011;69561;37.974;23.708;2023-08-08T07:35:54;2.00;;;1.80;;
80249;SDS011;69561;37.974;23.708;2023-08-08T07:38:19;2.00;;;1.80;;
80249;SDS011;69561;37.974;23.708;2023-08-08T07:40:45;3.30;;;1.40;;
80249;SDS011;69561;37.974;23.708;2023-08-08T07:43:13;3.13;;;1.40;;
80249;SDS011;69561;37.974;23.708;2023-08-08T07:45:38;2.60;;;1.50;;
80249;SDS011;69561;37.974;23.708;2023-08-08T07:48:04;2.08;;;1.10;;
80249;SDS011;69561;37.974;23.708;2023-08-08T07:50:30;2.05;;;1.13;;
80249;SDS011;69561;37.974;23.708;2023-08-08T07:52:56;2.63;;;1.17;;
80249;SDS011;69561;37.974;23.708;2023-08-08T07:55:22;2.15;;;1.20;;
80249;SDS011;69561;37.974;23.708;2023-08-08T07:57:47;1.85;;;1.30;;
80249;SDS011;69561;37.974;23.708;2023-08-08T08:00:13;4.43;;;1.23;;
80249;SDS011;69561;37.974;23.708;2023-08-08T08:02:43;2.58;;;1.13;;
80249;SDS011;69561;37.974;23.708;2023-08-08T08:05:10;1.70;;;1.00;;
80249;SDS011;69561;37.974;23.708;2023-08-08T08:07:36;2.60;;;0.93;;
80249;SDS011;69561;37.974;23.708;2023-08-08T08:10:03;1.33;;;0.90;;
80249;SDS011;69561;37.974;23.708;2023-08-08T08:12:30;1.77;;;0.80;;
80249;SDS011;69561;37.974;23.708;2023-08-08T08:14:56;1.65;;;0.80;;
80249;SDS011;69561;37.974;23.708;2023-08-08T08:17:23;1.52;;;0.75;;
80249;SDS011;69561;37.974;23.708;2023-08-08T08:19:50;2.25;;;0.80;;
80249;SDS011;69561;37.974;23.708;2023-08-08T08:22:16;3.65;;;0.95;;
80249;SDS011;69561;37.974;23.708;2023-08-08T08:24:42;1.27;;;0.90;;
80249;SDS011;69561;37.974;23.708;2023-08-08T08:27:08;4.00;;;1.00;;
80249;SDS011;69561;37.974;23.708;2023-08-08T08:29:34;2.85;;;1.08;;
80249;SDS011;69561;37.974;23.708;2023-08-08T08:31:59;3.17;;;0.93;;
80249;SDS011;69561;37.974;23.708;2023-08-08T08:34:25;2.67;;;1.00;;
80249;SDS011;69561;37.974;23.708;2023-08-08T08:36:51;4.60;;;0.90;;
80249;SDS011;69561;37.974;23.708;2023-08-08T08:39:16;3.92;;;1.10;;
80249;SDS011;69561;37.974;23.708;2023-08-08T08:41:42;3.30;;;1.13;;
80249;SDS011;69561;37.974;23.708;2023-08-08T08:44:15;3.28;;;1.17;;
80249;SDS011;69561;37.974;23.708;2023-08-08T08:46:41;3.28;;;1.23;;
80249;SDS011;69561;37.974;23.708;2023-08-08T08:49:07;5.20;;;1.40;;
80249;SDS011;69561;37.974;23.708;2023-08-08T08:51:36;3.22;;;1.20;;
80249;SDS011;69561;37.974;23.708;2023-08-08T08:54:02;3.47;;;1.40;;
80249;SDS011;69561;37.974;23.708;2023-08-08T08:56:28;3.35;;;1.40;;
80249;SDS011;69561;37.974;23.708;2023-08-08T08:58:54;11.48;;;1.42;;
80249;SDS011;69561;37.974;23.708;2023-08-08T09:01:20;8.13;;;1.48;;
80249;SDS011;69561;37.974;23.708;2023-08-08T09:03:48;4.97;;;1.42;;
80249;SDS011;69561;37.974;23.708;2023-08-08T09:06:14;2.03;;;1.17;;
80249;SDS011;69561;37.974;23.708;2023-08-08T09:08:41;3.88;;;1.40;;
80249;SDS011;69561;37.974;23.708;2023-08-08T09:11:07;2.20;;;1.42;;
80249;SDS011;69561;37.974;23.708;2023-08-08T09:13:35;3.33;;;1.20;;
80249;SDS011;69561;37.974;23.708;2023-08-08T09:16:04;4.25;;;1.40;;
80249;SDS011;69561;37.974;23.708;2023-08-08T09:18:33;6.10;;;1.38;;
80249;SDS011;69561;37.974;23.708;2023-08-08T09:21:03;3.88;;;1.30;;
80249;SDS011;69561;37.974;23.708;2023-08-08T09:23:29;3.05;;;1.15;;
80249;SDS011;69561;37.974;23.708;2023-08-08T09:25:55;7.10;;;1.63;;
80249;SDS011;69561;37.974;23.708;2023-08-08T09:28:21;3.15;;;1.02;;
80249;SDS011;69561;37.974;23.708;2023-08-08T09:30:46;5.97;;;1.20;;
80249;SDS011;69561;37.974;23.708;2023-08-08T09:33:12;5.38;;;1.00;;
80249;SDS011;69561;37.974;23.708;2023-08-08T09:35:38;6.10;;;1.40;;
80249;SDS011;69561;37.974;23.708;2023-08-08T09:38:04;2.58;;;1.60;;
80249;SDS011;69561;37.974;23.708;2023-08-08T09:40:30;2.97;;;1.40;;
80249;SDS011;69561;37.974;23.708;2023-08-08T09:42:56;2.85;;;1.30;;
80249;SDS011;69561;37.974;23.708;2023-08-08T09:45:23;3.33;;;1.20;;
80249;SDS011;69561;37.974;23.708;2023-08-08T09:47:52;4.90;;;1.17;;
80249;SDS011;69561;37.974;23.708;2023-08-08T09:50:18;6.63;;;1.25;;
80249;SDS011;69561;37.974;23.708;2023-08-08T09:52:45;4.35;;;1.15;;
80249;SDS011;69561;37.974;23.708;2023-08-08T09:55:12;5.00;;;1.23;;
80249;SDS011;69561;37.974;23.708;2023-08-08T09:57:39;3.13;;;1.30;;
80249;SDS011;69561;37.974;23.708;2023-08-08T10:00:05;6.15;;;1.35;;
80249;SDS011;69561;37.974;23.708;2023-08-08T10:02:36;5.07;;;1.42;;
80249;SDS011;69561;37.974;23.708;2023-08-08T10:05:03;4.88;;;1.30;;
80249;SDS011;69561;37.974;23.708;2023-08-08T10:07:30;4.00;;;1.20;;
80249;SDS011;69561;37.974;23.708;2023-08-08T10:09:56;2.38;;;1.15;;
80249;SDS011;69561;37.974;23.708;2023-08-08T10:12:23;4.80;;;1.30;;
80249;SDS011;69561;37.974;23.708;2023-08-08T10:14:50;5.80;;;1.42;;
80249;SDS011;69561;37.974;23.708;2023-08-08T10:17:17;4.20;;;1.40;;
80249;SDS011;69561;37.974;23.708;2023-08-08T10:19:50;4.32;;;1.58;;
80249;SDS011;69561;37.974;23.708;2023-08-08T10:22:19;6.78;;;1.67;;
80249;SDS011;69561;37.974;23.708;2023-08-08T10:24:51;3.22;;;1.48;;
80249;SDS011;69561;37.974;23.708;2023-08-08T10:27:31;6.55;;;1.58;;
80249;SDS011;69561;37.974;23.708;2023-08-08T10:30:07;4.78;;;1.40;;
80249;SDS011;69561;37.974;23.708;2023-08-08T10:32:53;4.22;;;1.70;;
80249;SDS011;69561;37.974;23.708;2023-08-08T10:35:22;4.50;;;1.30;;
80249;SDS011;69561;37.974;23.708;2023-08-08T10:37:55;4.85;;;1.55;;
80249;SDS011;69561;37.974;23.708;2023-08-08T10:40:23;4.38;;;1.83;;
80249;SDS011;69561;37.974;23.708;2023-08-08T10:42:58;7.13;;;1.90;;
80249;SDS011;69561;37.974;23.708;2023-08-08T10:45:28;5.07;;;1.80;;
80249;SDS011;69561;37.974;23.708;2023-08-08T10:47:55;2.92;;;1.80;;
80249;SDS011;69561;37.974;23.708;2023-08-08T10:50:22;4.22;;;2.05;;
80249;SDS011;69561;37.974;23.708;2023-08-08T10:58:14;2.60;;;2.22;;
80249;SDS011;69561;37.974;23.708;2023-08-08T11:00:45;2.33;;;1.70;;
80249;SDS011;69561;37.974;23.708;2023-08-08T11:03:10;3.63;;;1.52;;
80249;SDS011;69561;37.974;23.708;2023-08-08T11:05:37;4.80;;;1.85;;
80249;SDS011;69561;37.974;23.708;2023-08-08T11:08:04;1.90;;;1.60;;
80249;SDS011;69561;37.974;23.708;2023-08-08T11:10:34;3.33;;;1.90;;
80249;SDS011;69561;37.974;23.708;2023-08-08T11:13:02;2.40;;;1.80;;
80249;SDS011;69561;37.974;23.708;2023-08-08T11:15:29;2.15;;;1.60;;
80249;SDS011;69561;37.974;23.708;2023-08-08T11:18:00;2.08;;;1.50;;
80249;SDS011;69561;37.974;23.708;2023-08-08T11:20:30;2.10;;;1.40;;
80249;SDS011;69561;37.974;23.708;2023-08-08T11:25:27;1.40;;;1.30;;
80249;SDS011;69561;37.974;23.708;2023-08-08T11:27:55;1.70;;;1.30;;
80249;SDS011;69561;37.974;23.708;2023-08-08T11:30:22;1.15;;;1.00;;
80249;SDS011;69561;37.974;23.708;2023-08-08T11:32:48;2.13;;;1.30;;
80249;SDS011;69561;37.974;23.708;2023-08-08T11:35:22;1.13;;;1.02;;
80249;SDS011;69561;37.974;23.708;2023-08-08T11:37:49;1.60;;;1.00;;
80249;SDS011;69561;37.974;23.708;2023-08-08T11:40:17;2.67;;;1.10;;
80249;SDS011;69561;37.974;23.708;2023-08-08T11:42:46;1.58;;;1.00;;
80249;SDS011;69561;37.974;23.708;2023-08-08T11:45:15;1.15;;;0.95;;
80249;SDS011;69561;37.974;23.708;2023-08-08T11:47:41;1.50;;;1.10;;
80249;SDS011;69561;37.974;23.708;2023-08-08T11:50:07;0.60;;;0.60;;
80249;SDS011;69561;37.974;23.708;2023-08-08T11:52:35;1.05;;;0.88;;
80249;SDS011;69561;37.974;23.708;2023-08-08T11:55:29;0.85;;;0.75;;
80249;SDS011;69561;37.974;23.708;2023-08-08T11:57:59;1.40;;;0.75;;
80249;SDS011;69561;37.974;23.708;2023-08-08T12:00:29;1.17;;;0.77;;
80249;SDS011;69561;37.974;23.708;2023-08-08T12:02:55;1.02;;;0.80;;
80249;SDS011;69561;37.974;23.708;2023-08-08T12:05:22;0.68;;;0.63;;
80249;SDS011;69561;37.974;23.708;2023-08-08T12:07:48;0.70;;;0.70;;
80249;SDS011;69561;37.974;23.708;2023-08-08T12:10:18;0.80;;;0.70;;
80249;SDS011;69561;37.974;23.708;2023-08-08T12:12:46;0.70;;;0.70;;
80249;SDS011;69561;37.974;23.708;2023-08-08T12:18:01;2.55;;;0.68;;
80249;SDS011;69561;37.974;23.708;2023-08-08T12:20:28;0.93;;;0.50;;
80249;SDS011;69561;37.974;23.708;2023-08-08T12:22:55;0.68;;;0.60;;
80249;SDS011;69561;37.974;23.708;2023-08-08T12:25:22;1.17;;;0.63;;
80249;SDS011;69561;37.974;23.708;2023-08-08T12:27:47;0.70;;;0.63;;
80249;SDS011;69561;37.974;23.708;2023-08-08T12:30:13;1.17;;;0.50;;
80249;SDS011;69561;37.974;23.708;2023-08-08T12:32:39;1.00;;;0.70;;
80249;SDS011;69561;37.974;23.708;2023-08-08T12:35:05;0.60;;;0.60;;
80249;SDS011;69561;37.974;23.708;2023-08-08T12:37:31;0.82;;;0.68;;
80249;SDS011;69561;37.974;23.708;2023-08-08T12:39:57;0.88;;;0.65;;
80249;SDS011;69561;37.974;23.708;2023-08-08T12:42:23;1.15;;;0.50;;
80249;SDS011;69561;37.974;23.708;2023-08-08T12:44:49;1.00;;;0.55;;
80249;SDS011;69561;37.974;23.708;2023-08-08T12:47:18;0.50;;;0.50;;
80249;SDS011;69561;37.974;23.708;2023-08-08T12:49:45;0.50;;;0.50;;
80249;SDS011;69561;37.974;23.708;2023-08-08T12:52:11;0.85;;;0.40;;
80249;SDS011;69561;37.974;23.708;2023-08-08T12:54:37;0.55;;;0.50;;
80249;SDS011;69561;37.974;23.708;2023-08-08T12:57:03;1.27;;;0.50;;
80249;SDS011;69561;37.974;23.708;2023-08-08T12:59:29;0.60;;;0.60;;
80249;SDS011;69561;37.974;23.708;2023-08-08T13:01:55;0.40;;;0.40;;
80249;SDS011;69561;37.974;23.708;2023-08-08T13:04:21;0.47;;;0.40;;
80249;SDS011;69561;37.974;23.708;2023-08-08T13:06:47;0.98;;;0.50;;
80249;SDS011;69561;37.974;23.708;2023-08-08T13:09:13;0.50;;;0.50;;
80249;SDS011;69561;37.974;23.708;2023-08-08T13:11:40;0.90;;;0.47;;
80249;SDS011;69561;37.974;23.708;2023-08-08T13:14:06;0.43;;;0.43;;
80249;SDS011;69561;37.974;23.708;2023-08-08T13:16:32;0.63;;;0.50;;
80249;SDS011;69561;37.974;23.708;2023-08-08T13:18:58;0.50;;;0.50;;
80249;SDS011;69561;37.974;23.708;2023-08-08T13:21:23;1.02;;;0.70;;
80249;SDS011;69561;37.974;23.708;2023-08-08T13:23:49;1.05;;;0.80;;
80249;SDS011;69561;37.974;23.708;2023-08-08T13:26:15;1.30;;;1.15;;
80249;SDS011;69561;37.974;23.708;2023-08-08T13:28:41;1.95;;;1.45;;
80249;SDS011;69561;37.974;23.708;2023-08-08T13:31:08;2.53;;;1.90;;
80249;SDS011;69561;37.974;23.708;2023-08-08T13:33:33;2.03;;;1.75;;
80249;SDS011;69561;37.974;23.708;2023-08-08T13:36:00;2.28;;;2.08;;
80249;SDS011;69561;37.974;23.708;2023-08-08T13:38:26;3.10;;;2.33;;
80249;SDS011;69561;37.974;23.708;2023-08-08T13:40:52;4.15;;;2.70;;
80249;SDS011;69561;37.974;23.708;2023-08-08T13:43:18;4.20;;;3.15;;
80249;SDS011;69561;37.974;23.708;2023-08-08T13:45:45;3.67;;;3.35;;
80249;SDS011;69561;37.974;23.708;2023-08-08T13:48:10;5.38;;;4.00;;
80249;SDS011;69561;37.974;23.708;2023-08-08T13:50:36;4.60;;;3.78;;
80249;SDS011;69561;37.974;23.708;2023-08-08T13:53:02;4.60;;;3.97;;
80249;SDS011;69561;37.974;23.708;2023-08-08T13:55:28;3.97;;;3.40;;
80249;SDS011;69561;37.974;23.708;2023-08-08T13:57:54;6.47;;;3.67;;
80249;SDS011;69561;37.974;23.708;2023-08-08T14:00:20;5.00;;;3.90;;
80249;SDS011;69561;37.974;23.708;2023-08-08T14:02:47;4.85;;;3.33;;
80249;SDS011;69561;37.974;23.708;2023-08-08T14:05:12;6.28;;;3.42;;
80249;SDS011;69561;37.974;23.708;2023-08-08T14:07:38;3.97;;;3.20;;
80249;SDS011;69561;37.974;23.708;2023-08-08T14:10:05;5.03;;;3.50;;
80249;SDS011;69561;37.974;23.708;2023-08-08T14:12:31;4.20;;;2.90;;
80249;SDS011;69561;37.974;23.708;2023-08-08T14:14:57;4.82;;;2.78;;
80249;SDS011;69561;37.974;23.708;2023-08-08T14:17:22;4.35;;;2.80;;
80249;SDS011;69561;37.974;23.708;2023-08-08T14:19:48;3.03;;;2.45;;
80249;SDS011;69561;37.974;23.708;2023-08-08T14:22:14;5.93;;;2.15;;
80249;SDS011;69561;37.974;23.708;2023-08-08T14:24:40;3.45;;;2.28;;
80249;SDS011;69561;37.974;23.708;2023-08-08T14:27:09;2.53;;;2.30;;
80249;SDS011;69561;37.974;23.708;2023-08-08T14:29:35;3.65;;;2.00;;
80249;SDS011;69561;37.974;23.708;2023-08-08T14:32:00;2.05;;;1.83;;
80249;SDS011;69561;37.974;23.708;2023-08-08T14:34:32;4.25;;;1.95;;
80249;SDS011;69561;37.974;23.708;2023-08-08T14:36:59;3.55;;;1.98;;
80249;SDS011;69561;37.974;23.708;2023-08-08T14:39:26;1.92;;;1.73;;
80249;SDS011;69561;37.974;23.708;2023-08-08T14:41:52;3.03;;;1.70;;
80249;SDS011;69561;37.974;23.708;2023-08-08T14:44:18;2.15;;;1.67;;
80249;SDS011;69561;37.974;23.708;2023-08-08T14:46:44;1.67;;;1.58;;
80249;SDS011;69561;37.974;23.708;2023-08-08T14:49:09;2.38;;;1.70;;
80249;SDS011;69561;37.974;23.708;2023-08-08T14:51:35;1.60;;;1.50;;